createdAt,value
2016-04-12T00:00:09.938Z,95.89
2016-04-12T00:01:09.878Z,96.45
2016-04-12T00:02:09.834Z,96.36
2016-04-12T00:03:09.790Z,96.45
2016-04-12T00:04:09.730Z,96.45
2016-04-12T00:05:09.670Z,96.65
2016-04-12T00:06:09.641Z,96.36
2016-04-12T00:07:09.581Z,97.03
2016-04-12T00:08:09.542Z,97.03
2016-04-12T00:09:09.458Z,96.65
2016-04-12T00:10:09.414Z,96.84
2016-04-12T00:11:09.354Z,96.93
2016-04-12T00:12:09.294Z,97.22
2016-04-12T00:13:09.250Z,97.12
2016-04-12T00:14:09.190Z,96.84
2016-04-12T00:15:09.130Z,96.45
2016-04-12T00:16:09.086Z,95.89
2016-04-12T00:17:09.025Z,95.89
2016-04-12T00:18:08.982Z,96.65
2016-04-12T00:19:08.938Z,96.45
2016-04-12T00:20:08.862Z,96.55
2016-04-12T00:21:08.802Z,97.12
2016-04-12T00:22:08.773Z,96.74
2016-04-12T00:23:08.746Z,96.55
2016-04-12T00:24:08.669Z,95.98
2016-04-12T00:25:08.610Z,95.79
2016-04-12T00:26:08.565Z,95.51
2016-04-12T00:27:08.491Z,95.12
2016-04-12T00:28:08.445Z,95.22
2016-04-12T00:29:08.387Z,95.32
2016-04-12T00:30:08.327Z,95.6
2016-04-12T00:31:08.140Z,96.65
2016-04-12T00:32:08.229Z,96.36
2016-04-12T00:33:08.173Z,96.93
2016-04-12T00:34:08.113Z,96.84
2016-04-12T00:35:08.084Z,96.55
2016-04-12T00:36:08.025Z,96.55
2016-04-12T00:37:07.950Z,96.55
2016-04-12T00:38:07.906Z,96.55
2016-04-12T00:39:07.862Z,96.74
2016-04-12T00:40:07.801Z,96.93
2016-04-12T00:41:07.757Z,96.22
2016-04-12T00:42:07.681Z,96.55
2016-04-12T00:43:07.638Z,96.55
2016-04-12T00:44:07.578Z,96.17
2016-04-12T00:45:07.533Z,96.65
2016-04-12T00:46:07.475Z,95.98
2016-04-12T00:47:07.445Z,95.79
2016-04-12T00:48:07.370Z,95.79
2016-04-12T00:49:07.310Z,95.98
2016-04-12T00:50:07.267Z,95.41
2016-04-12T00:51:07.222Z,95.51
2016-04-12T00:52:07.162Z,95.6
2016-04-12T00:53:07.118Z,95.32
2016-04-12T00:54:07.042Z,95.6
2016-04-12T00:55:06.999Z,96.26
2016-04-12T00:56:06.955Z,96.6
2016-04-12T00:57:06.894Z,96.6
2016-04-12T00:58:06.834Z,96.41
2016-04-12T00:59:06.791Z,96.41
2016-04-12T01:00:06.746Z,95.75
2016-04-12T01:01:06.670Z,95.94
2016-04-12T01:02:06.627Z,95.84
2016-04-12T01:03:06.566Z,96.08
2016-04-12T01:04:06.523Z,95.84
2016-04-12T01:05:06.462Z,96.31
2016-04-12T01:06:06.403Z,96.5
2016-04-12T01:07:06.359Z,96.5
2016-04-12T01:08:06.299Z,96.6
2016-04-12T01:09:06.254Z,97.17
2016-04-12T01:10:06.210Z,97.07
2016-04-12T01:11:06.151Z,97.92
2016-04-12T01:12:06.091Z,96.98
2016-04-12T01:13:06.031Z,97.55
2016-04-12T01:14:05.970Z,98.5
2016-04-12T01:15:05.927Z,98.21
2016-04-12T01:16:05.867Z,97.64
2016-04-12T01:17:05.823Z,97.74
2016-04-12T01:18:05.747Z,97.74
2016-04-12T01:19:05.719Z,97.74
2016-04-12T01:20:05.644Z,97.83
2016-04-12T01:21:05.599Z,98.02
2016-04-12T01:22:05.539Z,98.5
2016-04-12T01:23:05.480Z,98.59
2016-04-12T01:24:05.436Z,98.59
2016-04-12T01:25:05.375Z,98.5
2016-04-12T01:26:05.332Z,98.5
2016-04-12T01:27:05.288Z,98.59
2016-04-12T01:28:05.212Z,97.83
2016-04-12T01:29:05.168Z,97.74
2016-04-12T01:30:05.108Z,96.79
2016-04-12T01:31:05.063Z,96.6
2016-04-12T01:32:05.004Z,97.27
2016-04-12T01:33:04.944Z,97.64
2016-04-12T01:34:04.915Z,97.64
2016-04-12T01:35:04.840Z,98.4
2016-04-12T01:36:04.780Z,97.92
2016-04-12T01:37:04.736Z,98.07
2016-04-12T01:38:04.692Z,97.55
2016-04-12T01:39:04.617Z,97.07
2016-04-12T01:40:04.572Z,96.88
2016-04-12T01:41:04.543Z,96.88
2016-04-12T01:42:04.468Z,97.74
2016-04-12T01:43:04.408Z,97.92
2016-04-12T01:44:04.349Z,98.02
2016-04-12T01:45:04.289Z,98.5
2016-04-12T01:46:04.245Z,98.45
2016-04-12T01:47:04.153Z,98.26
2016-04-12T01:48:04.141Z,98.16
2016-04-12T01:49:04.081Z,98.45
2016-04-12T01:50:04.021Z,98.35
2016-04-12T01:51:03.977Z,98.92
2016-04-12T01:52:03.917Z,97.97
2016-04-12T01:53:03.857Z,98.88
2016-04-12T01:54:03.813Z,98.45
2016-04-12T01:55:03.753Z,98.83
2016-04-12T01:56:03.709Z,99.11
2016-04-12T01:57:03.650Z,98.83
2016-04-12T01:58:03.589Z,98.45
2016-04-12T01:59:03.529Z,98.35
2016-04-12T02:00:03.486Z,98.64
2016-04-12T02:01:03.426Z,98.07
2016-04-12T02:02:03.382Z,98.35
2016-04-12T02:03:03.322Z,98.83
2016-04-12T02:04:03.262Z,98.83
2016-04-12T02:05:03.218Z,98.73
2016-04-12T02:06:03.157Z,98.59
2016-04-12T02:07:03.098Z,98.45
2016-04-12T02:08:03.038Z,98.54
2016-04-12T02:09:02.978Z,98.64
2016-04-12T02:10:02.934Z,99.02
2016-04-12T02:11:02.873Z,98.73
2016-04-12T02:12:02.830Z,99.4
2016-04-12T02:13:02.786Z,99.87
2016-04-12T02:14:02.711Z,99.68
2016-04-12T02:15:02.650Z,99.4
2016-04-12T02:16:02.622Z,99.49
2016-04-12T02:17:02.453Z,99.49
2016-04-12T02:18:02.487Z,99.99
2016-04-12T02:19:02.443Z,99.99
2016-04-12T02:20:02.383Z,99.99
2016-04-12T02:21:02.339Z,99.49
2016-04-12T02:22:02.279Z,99.99
2016-04-12T02:23:02.219Z,99.97
2016-04-12T02:24:02.159Z,99.99
2016-04-12T02:25:02.116Z,99.99
2016-04-12T02:26:02.071Z,99.99
2016-04-12T02:27:01.996Z,99.77
2016-04-12T02:28:01.951Z,99.02
2016-04-12T02:29:01.891Z,99.02
2016-04-12T02:30:01.847Z,98.83
2016-04-12T02:31:01.787Z,98.45
2016-04-12T02:32:01.618Z,98.4
2016-04-12T02:33:01.668Z,98.83
2016-04-12T02:34:01.624Z,98.54
2016-04-12T02:35:01.580Z,98.35
2016-04-12T02:36:01.521Z,98.64
2016-04-12T02:37:01.476Z,97.97
2016-04-12T02:38:01.401Z,98.35
2016-04-12T02:39:01.356Z,97.92
2016-04-12T02:40:01.296Z,98.02
2016-04-12T02:41:01.252Z,98.02
2016-04-12T02:42:01.192Z,97.74
2016-04-12T02:43:01.148Z,97.55
2016-04-12T02:44:01.088Z,97.83
2016-04-12T02:45:01.029Z,97.74
2016-04-12T02:46:00.984Z,98.02
2016-04-12T02:47:00.940Z,98.02
2016-04-12T02:48:00.864Z,97.92
2016-04-12T02:49:00.805Z,97.74
2016-04-12T02:50:00.761Z,97.74
2016-04-12T02:51:00.700Z,98.21
2016-04-12T02:52:01.063Z,98.02
2016-04-12T02:53:00.612Z,97.83
2016-04-12T02:54:00.552Z,97.55
2016-04-12T02:55:00.492Z,97.74
2016-04-12T02:56:00.433Z,97.64
2016-04-12T02:57:00.388Z,97.45
2016-04-12T02:58:00.313Z,98.12
2016-04-12T02:59:00.268Z,98.5
2016-04-12T03:00:00.224Z,98.59
2016-04-12T03:01:00.165Z,99.07
2016-04-12T03:02:00.105Z,99.07
2016-04-12T03:03:00.045Z,98.97
2016-04-12T03:03:59.985Z,98.88
2016-04-12T03:04:59.941Z,99.54
2016-04-12T03:05:59.881Z,99.35
2016-04-12T03:06:59.837Z,99.64
2016-04-12T03:07:59.777Z,99.16
2016-04-12T03:08:59.717Z,99.07
2016-04-12T03:09:59.689Z,98.79
2016-04-12T03:10:59.629Z,98.79
2016-04-12T03:11:59.554Z,98.88
2016-04-12T03:12:59.510Z,98.59
2016-04-12T03:13:59.450Z,99.16
2016-04-12T03:14:59.406Z,98.97
2016-04-12T03:15:59.361Z,99.07
2016-04-12T03:16:59.301Z,98.59
2016-04-12T03:17:59.242Z,99.44
2016-04-12T03:18:59.181Z,99.99
2016-04-12T03:19:59.123Z,99.99
2016-04-12T03:20:59.079Z,99.99
2016-04-12T03:21:59.019Z,99.99
2016-04-12T03:22:58.959Z,99.99
2016-04-12T03:23:58.914Z,99.99
2016-04-12T03:24:58.855Z,99.99
2016-04-12T03:25:58.795Z,99.99
2016-04-12T03:26:58.750Z,99.99
2016-04-12T03:27:58.691Z,99.99
2016-04-12T03:28:58.646Z,99.99
2016-04-12T03:29:58.586Z,99.99
2016-04-12T03:30:58.527Z,99.99
2016-04-12T03:31:58.466Z,99.99
2016-04-12T03:32:58.454Z,99.99
2016-04-12T03:33:58.363Z,99.99
2016-04-12T03:34:58.319Z,99.99
2016-04-12T03:35:58.274Z,99.99
2016-04-12T03:36:58.199Z,99.99
2016-04-12T03:37:58.155Z,99.99
2016-04-12T03:38:58.111Z,99.99
2016-04-12T03:39:58.036Z,99.99
2016-04-12T03:40:57.991Z,99.99
2016-04-12T03:41:57.932Z,99.99
2016-04-12T03:42:57.887Z,99.99
2016-04-12T03:43:57.828Z,99.99
2016-04-12T03:44:57.784Z,99.99
2016-04-12T03:45:57.723Z,99.99
2016-04-12T03:46:57.679Z,99.99
2016-04-12T03:47:57.619Z,99.99
2016-04-12T03:48:57.559Z,99.99
2016-04-12T03:49:57.500Z,99.99
2016-04-12T03:50:57.455Z,99.99
2016-04-12T03:51:57.411Z,99.99
2016-04-12T03:52:57.352Z,99.99
2016-04-12T03:53:57.292Z,99.99
2016-04-12T03:54:57.233Z,99.99
2016-04-12T03:55:57.188Z,99.99
2016-04-12T03:56:57.144Z,99.99
2016-04-12T03:57:57.099Z,99.99
2016-04-12T03:58:57.025Z,99.99
2016-04-12T03:59:56.964Z,99.99
2016-04-12T04:00:56.905Z,99.99
2016-04-12T04:01:56.860Z,99.99
2016-04-12T04:02:56.644Z,99.99
2016-04-12T04:03:56.757Z,99.99
2016-04-12T04:04:56.697Z,99.99
2016-04-12T04:05:56.637Z,99.99
2016-04-12T04:06:56.607Z,99.99
2016-04-12T04:07:56.548Z,99.99
2016-04-12T04:08:56.489Z,99.99
2016-04-12T04:09:56.444Z,99.99
2016-04-12T04:10:56.369Z,99.99
2016-04-12T04:11:56.324Z,99.99
2016-04-12T04:12:56.265Z,99.99
2016-04-12T04:13:56.205Z,99.99
2016-04-12T04:14:56.176Z,99.99
2016-04-12T04:15:55.367Z,99.99
2016-04-12T04:16:56.041Z,99.99
2016-04-12T04:17:55.998Z,99.99
2016-04-12T04:18:55.937Z,99.99
2016-04-12T04:19:55.909Z,99.99
2016-04-12T04:20:55.833Z,99.99
2016-04-12T04:21:55.789Z,99.99
2016-04-12T04:22:55.729Z,99.99
2016-04-12T04:23:55.685Z,99.99
2016-04-12T04:24:55.609Z,99.99
2016-04-12T04:25:55.581Z,99.99
2016-04-12T04:26:55.522Z,99.99
2016-04-12T04:27:55.461Z,99.99
2016-04-12T04:28:55.402Z,99.99
2016-04-12T04:29:55.358Z,99.99
2016-04-12T04:30:55.313Z,99.99
2016-04-12T04:31:55.238Z,99.99
2016-04-12T04:32:55.194Z,99.99
2016-04-12T04:33:55.133Z,99.99
2016-04-12T04:34:55.090Z,99.99
2016-04-12T04:35:55.029Z,99.99
2016-04-12T04:36:54.986Z,99.99
2016-04-12T04:37:54.926Z,99.99
2016-04-12T04:38:54.882Z,99.99
2016-04-12T04:39:54.822Z,99.99
2016-04-12T04:40:54.777Z,99.99
2016-04-12T04:41:54.702Z,99.99
2016-04-12T04:42:54.658Z,99.99
2016-04-12T04:43:54.598Z,99.99
2016-04-12T04:44:54.538Z,99.99
2016-04-12T04:45:54.495Z,99.99
2016-04-12T04:46:54.434Z,99.99
2016-04-12T04:47:54.390Z,99.99
2016-04-12T04:48:54.362Z,99.99
2016-04-12T04:49:54.271Z,99.99
2016-04-12T04:50:54.242Z,99.99
2016-04-12T04:51:54.182Z,99.99
2016-04-12T04:52:54.138Z,99.99
2016-04-12T04:53:54.079Z,99.99
2016-04-12T04:54:54.019Z,99.99
2016-04-12T04:55:53.959Z,99.99
2016-04-12T04:56:53.914Z,99.99
2016-04-12T04:57:53.854Z,99.99
2016-04-12T04:58:53.826Z,99.99
2016-04-12T04:59:53.766Z,99.99
2016-04-12T05:00:53.691Z,99.99
2016-04-12T05:01:53.663Z,99.99
2016-04-12T05:02:53.586Z,99.99
2016-04-12T05:03:53.543Z,99.99
2016-04-12T05:04:53.483Z,99.99
2016-04-12T05:05:53.424Z,99.99
2016-04-12T05:06:53.363Z,99.99
2016-04-12T05:07:53.319Z,99.99
2016-04-12T05:08:53.275Z,99.99
2016-04-12T05:09:53.200Z,99.99
2016-04-12T05:10:53.165Z,99.99
2016-04-12T05:11:53.105Z,99.99
2016-04-12T05:12:53.077Z,99.99
2016-04-12T05:13:53.001Z,99.99
2016-04-12T05:14:52.956Z,99.99
2016-04-12T05:15:52.898Z,99.99
2016-04-12T05:16:52.837Z,99.99
2016-04-12T05:17:52.778Z,99.99
2016-04-12T05:18:52.749Z,99.99
2016-04-12T05:19:52.673Z,99.99
2016-04-12T05:20:52.661Z,99.99
2016-04-12T05:21:52.600Z,99.99
2016-04-12T05:22:52.525Z,99.99
2016-04-12T05:23:52.466Z,99.99
2016-04-12T05:24:52.422Z,99.99
2016-04-12T05:25:52.362Z,99.99
2016-04-12T05:26:52.302Z,99.99
2016-04-12T05:27:52.258Z,99.99
2016-04-12T05:28:52.197Z,99.99
2016-04-12T05:29:52.138Z,99.99
2016-04-12T05:30:52.094Z,99.99
2016-04-12T05:31:52.034Z,99.99
2016-04-12T05:32:52.052Z,99.99
2016-04-12T05:33:51.945Z,99.99
2016-04-12T05:34:51.871Z,99.99
2016-04-12T05:35:51.826Z,99.99
2016-04-12T05:36:51.765Z,99.99
2016-04-12T05:37:51.738Z,99.99
2016-04-12T05:38:51.662Z,99.99
2016-04-12T05:39:51.602Z,99.99
2016-04-12T05:40:51.574Z,99.99
2016-04-12T05:41:51.498Z,99.99
2016-04-12T05:42:51.454Z,99.99
2016-04-12T05:43:51.394Z,99.99
2016-04-12T05:44:51.366Z,99.99
2016-04-12T05:45:51.290Z,99.99
2016-04-12T05:46:51.262Z,99.99
2016-04-12T05:47:51.311Z,99.99
2016-04-12T05:48:51.142Z,99.99
2016-04-12T05:49:51.083Z,99.99
2016-04-12T05:50:51.022Z,99.99
2016-04-12T05:51:50.978Z,99.99
2016-04-12T05:52:50.950Z,99.99
2016-04-12T05:53:50.875Z,99.99
2016-04-12T05:54:50.814Z,99.99
2016-04-12T05:55:50.755Z,99.99
2016-04-12T05:56:50.711Z,99.99
2016-04-12T05:57:50.666Z,99.99
2016-04-12T05:58:50.607Z,99.99
2016-04-12T05:59:50.563Z,99.99
2016-04-12T06:00:50.502Z,99.99
2016-04-12T06:01:49.708Z,99.99
2016-04-12T06:02:50.524Z,99.99
2016-04-12T06:03:50.339Z,99.99
2016-04-12T06:04:50.279Z,99.99
2016-04-12T06:05:50.234Z,99.99
2016-04-12T06:06:50.175Z,99.99
2016-04-12T06:07:50.131Z,99.99
2016-04-12T06:08:50.087Z,99.99
2016-04-12T06:09:50.027Z,99.99
2016-04-12T06:10:49.982Z,99.99
2016-04-12T06:11:49.907Z,99.99
2016-04-12T06:12:49.862Z,99.99
2016-04-12T06:13:49.818Z,99.99
2016-04-12T06:14:49.759Z,99.99
2016-04-12T06:15:49.715Z,99.99
2016-04-12T06:16:49.655Z,99.99
2016-04-12T06:17:49.626Z,99.99
2016-04-12T06:18:49.551Z,99.99
2016-04-12T06:19:49.506Z,99.99
2016-04-12T06:20:49.447Z,99.99
2016-04-12T06:21:49.419Z,99.99
2016-04-12T06:22:49.328Z,99.99
2016-04-12T06:23:49.283Z,99.99
2016-04-12T06:24:49.239Z,99.99
2016-04-12T06:25:49.180Z,99.99
2016-04-12T06:26:49.135Z,99.99
2016-04-12T06:27:49.074Z,99.98
2016-04-12T06:28:49.031Z,99.51
2016-04-12T06:29:48.971Z,99.03
2016-04-12T06:30:48.943Z,99.32
2016-04-12T06:31:48.883Z,99.32
2016-04-12T06:32:48.823Z,99.13
2016-04-12T06:33:48.763Z,99.22
2016-04-12T06:34:48.719Z,98.55
2016-04-12T06:35:48.660Z,98.36
2016-04-12T06:36:48.599Z,98.65
2016-04-12T06:37:48.555Z,99.13
2016-04-12T06:38:48.496Z,99.03
2016-04-12T06:39:48.436Z,99.17
2016-04-12T06:40:48.376Z,98.69
2016-04-12T06:41:48.331Z,98.79
2016-04-12T06:42:48.271Z,98.88
2016-04-12T06:43:48.228Z,99.46
2016-04-12T06:44:48.168Z,99.99
2016-04-12T06:45:48.123Z,99.65
2016-04-12T06:46:48.064Z,99.55
2016-04-12T06:47:48.020Z,99.99
2016-04-12T06:48:47.975Z,99.99
2016-04-12T06:49:47.915Z,99.99
2016-04-12T06:50:47.856Z,99.99
2016-04-12T06:51:47.812Z,99.99
2016-04-12T06:52:47.752Z,99.99
2016-04-12T06:53:47.692Z,99.99
2016-04-12T06:54:47.648Z,99.99
2016-04-12T06:55:47.604Z,99.99
2016-04-12T06:56:47.528Z,99.99
2016-04-12T06:57:47.484Z,99.99
2016-04-12T06:58:47.424Z,99.99
2016-04-12T06:59:47.364Z,99.99
2016-04-12T07:00:47.319Z,99.99
2016-04-12T07:01:47.260Z,99.99
2016-04-12T07:02:47.216Z,99.99
2016-04-12T07:03:47.297Z,99.99
2016-04-12T07:04:47.112Z,99.99
2016-04-12T07:05:47.052Z,99.99
2016-04-12T07:06:46.993Z,99.99
2016-04-12T07:07:46.948Z,99.99
2016-04-12T07:08:46.888Z,99.99
2016-04-12T07:09:46.860Z,99.99
2016-04-12T07:10:46.815Z,99.99
2016-04-12T07:11:46.740Z,99.99
2016-04-12T07:12:46.696Z,99.99
2016-04-12T07:13:46.637Z,99.99
2016-04-12T07:14:46.592Z,99.99
2016-04-12T07:15:46.532Z,99.99
2016-04-12T07:16:46.473Z,99.99
2016-04-12T07:17:46.444Z,99.99
2016-04-12T07:18:46.368Z,99.99
2016-04-12T07:19:46.465Z,99.99
2016-04-12T07:20:46.265Z,99.99
2016-04-12T07:21:46.220Z,99.99
2016-04-12T07:22:46.176Z,99.99
2016-04-12T07:23:46.100Z,99.99
2016-04-12T07:24:46.041Z,99.99
2016-04-12T07:25:46.106Z,99.99
2016-04-12T07:26:46.109Z,99.99
2016-04-12T07:27:45.971Z,99.99
2016-04-12T07:28:45.958Z,99.99
2016-04-12T07:29:45.961Z,99.99
2016-04-12T07:30:45.869Z,99.99
2016-04-12T07:31:45.747Z,99.99
2016-04-12T07:32:45.781Z,99.99
2016-04-12T07:33:45.675Z,99.99
2016-04-12T07:34:45.521Z,99.99
2016-04-12T07:35:45.460Z,99.99
2016-04-12T07:36:45.417Z,99.99
2016-04-12T07:37:45.357Z,99.99
2016-04-12T07:38:45.313Z,99.99
2016-04-12T07:39:45.269Z,99.99
2016-04-12T07:40:45.193Z,99.99
2016-04-12T07:41:45.152Z,99.99
2016-04-12T07:42:45.016Z,99.99
2016-04-12T07:43:45.129Z,99.99
2016-04-12T07:44:45.132Z,99.99
2016-04-12T07:45:45.137Z,99.99
2016-04-12T07:46:45.123Z,99.99
2016-04-12T07:47:45.112Z,99.99
2016-04-12T07:48:45.053Z,99.99
2016-04-12T07:49:45.042Z,99.99
2016-04-12T07:50:44.984Z,99.99
2016-04-12T07:51:44.941Z,99.99
2016-04-12T07:52:44.903Z,99.99
2016-04-12T07:53:44.864Z,99.99
2016-04-12T07:54:44.810Z,99.99
2016-04-12T07:55:44.757Z,99.99
2016-04-12T07:56:44.719Z,99.99
2016-04-12T07:57:44.677Z,99.99
2016-04-12T07:58:44.604Z,99.99
2016-04-12T07:59:44.562Z,99.99
2016-04-12T08:00:44.535Z,99.99
2016-04-12T08:01:44.477Z,99.99
2016-04-12T08:02:44.435Z,99.99
2016-04-12T08:03:44.376Z,99.99
2016-04-12T08:04:44.301Z,99.99
2016-04-12T08:05:44.257Z,99.99
2016-04-12T08:06:44.214Z,99.99
2016-04-12T08:07:44.155Z,99.99
2016-04-12T08:08:44.100Z,99.99
2016-04-12T08:09:44.055Z,99.99
2016-04-12T08:10:43.840Z,99.99
2016-04-12T08:11:43.937Z,99.99
2016-04-12T08:12:43.892Z,99.99
2016-04-12T08:13:43.838Z,99.99
2016-04-12T08:14:43.794Z,99.99
2016-04-12T08:15:43.734Z,99.99
2016-04-12T08:16:43.675Z,99.99
2016-04-12T08:17:43.630Z,99.99
2016-04-12T08:18:43.569Z,99.99
2016-04-12T08:19:43.542Z,99.75
2016-04-12T08:20:43.466Z,99.37
2016-04-12T08:21:43.422Z,99.04
2016-04-12T08:22:43.393Z,98.94
2016-04-12T08:23:43.303Z,98.75
2016-04-12T08:24:43.274Z,98.65
2016-04-12T08:25:43.370Z,99.13
2016-04-12T08:26:43.154Z,99.22
2016-04-12T08:27:43.094Z,99.41
2016-04-12T08:28:43.051Z,99.99
2016-04-12T08:29:43.007Z,99.99
2016-04-12T08:30:42.946Z,99.75
2016-04-12T08:31:42.902Z,99.99
2016-04-12T08:32:42.857Z,99.99
2016-04-12T08:33:42.798Z,99.99
2016-04-12T08:34:42.754Z,99.99
2016-04-12T08:35:42.695Z,99.65
2016-04-12T08:36:42.634Z,99.94
2016-04-12T08:37:42.575Z,99.75
2016-04-12T08:38:42.531Z,99.65
2016-04-12T08:39:42.484Z,99.99
2016-04-12T08:40:42.424Z,99.75
2016-04-12T08:41:42.395Z,99.99
2016-04-12T08:42:42.320Z,99.99
2016-04-12T08:43:42.276Z,99.99
2016-04-12T08:44:42.231Z,99.99
2016-04-12T08:45:42.000Z,99.99
2016-04-12T08:46:42.112Z,99.84
2016-04-12T08:47:42.052Z,99.99
2016-04-12T08:48:42.008Z,99.99
2016-04-12T08:49:41.964Z,99.99
2016-04-12T08:50:41.919Z,99.99
2016-04-12T08:51:41.844Z,99.99
2016-04-12T08:52:41.800Z,99.99
2016-04-12T08:53:41.740Z,99.99
2016-04-12T08:54:41.696Z,99.99
2016-04-12T08:55:41.636Z,99.99
2016-04-12T08:56:41.592Z,99.27
2016-04-12T08:57:41.547Z,99.55
2016-04-12T08:58:41.488Z,99.55
2016-04-12T08:59:41.444Z,99.99
2016-04-12T09:00:41.384Z,99.99
2016-04-12T09:01:41.340Z,99.65
2016-04-12T09:02:41.280Z,99.65
2016-04-12T09:03:41.220Z,99.65
2016-04-12T09:04:41.176Z,99.99
2016-04-12T09:05:41.131Z,99.99
2016-04-12T09:06:41.071Z,99.99
2016-04-12T09:07:41.012Z,99.99
2016-04-12T09:08:40.952Z,99.99
2016-04-12T09:09:40.912Z,99.99
2016-04-12T09:10:40.853Z,99.99
2016-04-12T09:11:40.809Z,99.99
2016-04-12T09:12:40.750Z,99.99
2016-04-12T09:13:40.705Z,99.94
2016-04-12T09:14:40.645Z,99.99
2016-04-12T09:15:40.585Z,99.84
2016-04-12T09:16:40.541Z,99.99
2016-04-12T09:17:40.481Z,99.99
2016-04-12T09:18:40.469Z,99.99
2016-04-12T09:19:40.393Z,99.75
2016-04-12T09:20:40.333Z,99.37
2016-04-12T09:21:40.288Z,99.75
2016-04-12T09:22:40.244Z,99.94
2016-04-12T09:23:40.185Z,99.75
2016-04-12T09:24:40.125Z,99.99
2016-04-12T09:25:40.065Z,99.99
2016-04-12T09:26:40.021Z,99.99
2016-04-12T09:27:39.977Z,99.99
2016-04-12T09:28:39.932Z,99.99
2016-04-12T09:29:39.873Z,99.51
2016-04-12T09:30:39.813Z,99.41
2016-04-12T09:31:39.769Z,99.41
2016-04-12T09:32:39.709Z,99.99
2016-04-12T09:33:39.712Z,99.94
2016-04-12T09:34:39.605Z,99.84
2016-04-12T09:35:39.562Z,99.75
2016-04-12T09:36:39.517Z,99.04
2016-04-12T09:37:39.457Z,99.04
2016-04-12T09:38:39.397Z,97.99
2016-04-12T09:39:39.353Z,97.94
2016-04-12T09:40:39.309Z,99.22
2016-04-12T09:41:39.249Z,99.32
2016-04-12T09:42:39.189Z,99.13
2016-04-12T09:43:39.145Z,99.22
2016-04-12T09:44:39.381Z,99.8
2016-04-12T09:45:39.041Z,99.7
2016-04-12T09:46:38.997Z,99.51
2016-04-12T09:47:38.937Z,99.6
2016-04-12T09:48:39.002Z,99.99
2016-04-12T09:49:38.849Z,99.41
2016-04-12T09:50:38.773Z,98.51
2016-04-12T09:51:38.729Z,96.61
2016-04-12T09:52:38.699Z,96.13
2016-04-12T09:53:38.624Z,95.84
2016-04-12T09:54:38.581Z,94.56
2016-04-12T09:55:38.536Z,93.7
2016-04-12T09:56:38.493Z,91.69
2016-04-12T09:57:38.432Z,90.69
2016-04-12T09:58:38.404Z,90.69
2016-04-12T09:59:38.313Z,91.07
2016-04-12T10:00:38.300Z,93.46
2016-04-12T10:01:38.241Z,92.41
2016-04-12T10:02:38.196Z,93.46
2016-04-12T10:03:37.979Z,92.79
2016-04-12T10:04:38.060Z,92.16
2016-04-12T10:05:38.017Z,90.97
2016-04-12T10:06:37.987Z,90.45
2016-04-12T10:07:37.960Z,90.11
2016-04-12T10:08:37.868Z,88.96
2016-04-12T10:09:37.824Z,89.1
2016-04-12T10:10:37.780Z,87.09
2016-04-12T10:11:37.720Z,85.89
2016-04-12T10:12:37.676Z,85.99
2016-04-12T10:13:37.616Z,84.41
2016-04-12T10:14:37.572Z,83.16
2016-04-12T10:15:37.527Z,83.73
2016-04-12T10:16:37.468Z,82.82
2016-04-12T10:17:37.408Z,81.25
2016-04-12T10:18:37.380Z,81.54
2016-04-12T10:19:37.319Z,82.87
2016-04-12T10:20:37.260Z,83.64
2016-04-12T10:21:37.216Z,83.36
2016-04-12T10:22:37.188Z,83.93
2016-04-12T10:23:37.144Z,84.31
2016-04-12T10:24:37.083Z,85.08
2016-04-12T10:25:37.054Z,84.27
2016-04-12T10:26:37.010Z,83.98
2016-04-12T10:27:36.919Z,84.22
2016-04-12T10:28:36.875Z,83.16
2016-04-12T10:29:36.815Z,82.82
2016-04-12T10:30:36.787Z,80.71
2016-04-12T10:31:36.743Z,79.18
2016-04-12T10:32:36.667Z,80.9
2016-04-12T10:33:36.685Z,79.66
2016-04-12T10:34:36.595Z,80.62
2016-04-12T10:35:36.534Z,79.13
2016-04-12T10:36:36.476Z,78.22
2016-04-12T10:37:36.462Z,78.32
2016-04-12T10:38:36.371Z,77.75
2016-04-12T10:39:36.326Z,79.22
2016-04-12T10:40:36.282Z,79.32
2016-04-12T10:41:36.238Z,79.16
2016-04-12T10:42:36.178Z,77.44
2016-04-12T10:43:36.151Z,77.36
2016-04-12T10:44:36.106Z,77.02
2016-04-12T10:45:36.046Z,78.13
2016-04-12T10:46:35.986Z,76.82
2016-04-12T10:47:35.942Z,76.64
2016-04-12T10:48:35.898Z,76.96
2016-04-12T10:49:35.839Z,75.52
2016-04-12T10:50:35.794Z,74.95
2016-04-12T10:51:35.749Z,75.08
2016-04-12T10:52:35.690Z,74.66
2016-04-12T10:53:35.661Z,73.13
2016-04-12T10:54:35.602Z,73.32
2016-04-12T10:55:35.542Z,72.8
2016-04-12T10:56:35.497Z,73.61
2016-04-12T10:57:35.469Z,72.84
2016-04-12T10:58:35.409Z,73.8
2016-04-12T10:59:35.349Z,73.51
2016-04-12T11:00:35.305Z,72.88
2016-04-12T11:01:35.260Z,71.63
2016-04-12T11:02:35.216Z,71.15
2016-04-12T11:03:35.188Z,70.67
2016-04-12T11:04:35.159Z,72.53
2016-04-12T11:05:35.084Z,70.99
2016-04-12T11:06:35.009Z,70.73
2016-04-12T11:07:34.964Z,72.17
2016-04-12T11:08:34.920Z,73.83
2016-04-12T11:09:34.877Z,71.34
2016-04-12T11:10:34.832Z,70.09
2016-04-12T11:11:34.787Z,70.57
2016-04-12T11:12:34.728Z,70.86
2016-04-12T11:13:34.683Z,69.71
2016-04-12T11:14:34.656Z,69.07
2016-04-12T11:15:34.595Z,68.5
2016-04-12T11:16:34.536Z,70.13
2016-04-12T11:17:34.475Z,71.76
2016-04-12T11:18:34.431Z,70.51
2016-04-12T11:19:34.387Z,68.79
2016-04-12T11:20:34.327Z,67.96
2016-04-12T11:21:34.314Z,67.57
2016-04-12T11:22:34.255Z,66.71
2016-04-12T11:23:34.195Z,66.13
2016-04-12T11:24:34.167Z,66.9
2016-04-12T11:25:34.107Z,67.96
2016-04-12T11:26:34.063Z,68.53
2016-04-12T11:27:34.002Z,67.61
2016-04-12T11:28:33.974Z,68.47
2016-04-12T11:29:33.899Z,65.69
2016-04-12T11:30:33.871Z,65.4
2016-04-12T11:31:33.827Z,65.4
2016-04-12T11:32:33.765Z,64.82
2016-04-12T11:33:33.738Z,62.32
2016-04-12T11:34:33.663Z,62.1
2016-04-12T11:35:33.634Z,62.01
2016-04-12T11:36:33.574Z,63.16
2016-04-12T11:37:33.545Z,63.25
2016-04-12T11:38:33.485Z,62.01
2016-04-12T11:39:33.425Z,61.46
2016-04-12T11:40:33.381Z,61.62
2016-04-12T11:41:33.337Z,61.52
2016-04-12T11:42:33.277Z,62.39
2016-04-12T11:43:33.233Z,62.39
2016-04-12T11:44:33.205Z,62.19
2016-04-12T11:45:33.145Z,62.19
2016-04-12T11:46:33.100Z,61.43
2016-04-12T11:47:33.041Z,62.1
2016-04-12T11:48:33.012Z,62.23
2016-04-12T11:49:32.953Z,61.94
2016-04-12T11:50:32.908Z,61.36
2016-04-12T11:51:32.848Z,61.55
2016-04-12T11:52:32.788Z,60.5
2016-04-12T11:53:32.744Z,61.55
2016-04-12T11:54:32.700Z,62.26
2016-04-12T11:55:32.672Z,64.05
2016-04-12T11:56:32.611Z,64.47
2016-04-12T11:57:32.568Z,65.3
2016-04-12T11:58:32.508Z,65.01
2016-04-12T11:59:32.464Z,65.33
2016-04-12T12:00:32.420Z,64.37
2016-04-12T12:01:32.360Z,64.56
2016-04-12T12:02:32.316Z,64.76
2016-04-12T12:03:32.271Z,64.76
2016-04-12T12:04:32.227Z,64.18
2016-04-12T12:05:32.183Z,65.53
2016-04-12T12:06:32.123Z,65.17
2016-04-12T12:07:32.079Z,65.14
2016-04-12T12:08:32.035Z,65.62
2016-04-12T12:09:32.006Z,64.79
2016-04-12T12:10:31.946Z,64.02
2016-04-12T12:11:31.901Z,63.83
2016-04-12T12:12:31.858Z,63.45
2016-04-12T12:13:31.799Z,63.28
2016-04-12T12:14:31.754Z,62.23
2016-04-12T12:15:31.709Z,61.43
2016-04-12T12:16:31.665Z,61.74
2016-04-12T12:17:31.684Z,62.61
2016-04-12T12:18:31.578Z,63.48
2016-04-12T12:19:31.534Z,63.35
2016-04-12T12:20:31.473Z,63.28
2016-04-12T12:21:31.429Z,63.45
2016-04-12T12:22:31.386Z,62.35
2016-04-12T12:23:31.341Z,60.46
2016-04-12T12:24:31.281Z,59.6
2016-04-12T12:25:31.253Z,58.15
2016-04-12T12:26:31.208Z,59.63
2016-04-12T12:27:31.149Z,59.99
2016-04-12T12:28:31.120Z,59.34
2016-04-12T12:29:31.060Z,60.66
2016-04-12T12:30:31.016Z,61.52
2016-04-12T12:31:30.956Z,61.91
2016-04-12T12:32:30.912Z,61.91
2016-04-12T12:33:30.883Z,61.74
2016-04-12T12:34:30.824Z,62.19
2016-04-12T12:35:30.779Z,62.29
2016-04-12T12:36:30.735Z,62.19
2016-04-12T12:37:30.676Z,61.52
2016-04-12T12:38:30.632Z,60.94
2016-04-12T12:39:30.602Z,60.49
2016-04-12T12:40:30.543Z,59.05
2016-04-12T12:41:30.514Z,59.24
2016-04-12T12:42:30.454Z,59.44
2016-04-12T12:43:30.426Z,59.05
2016-04-12T12:44:30.351Z,59.05
2016-04-12T12:45:30.338Z,58.09
2016-04-12T12:46:30.262Z,59.12
2016-04-12T12:47:30.217Z,57.8
2016-04-12T12:48:30.173Z,55.3
2016-04-12T12:49:30.129Z,55.37
2016-04-12T12:50:30.069Z,55.82
2016-04-12T12:51:30.042Z,57.29
2016-04-12T12:52:29.981Z,58.06